createdAt,value
2024-03-16T00:00:32.092Z,14.55
2024-03-16T00:03:01.075Z,14.56
2024-03-16T00:05:30.000Z,14.67
2024-03-16T00:07:58.382Z,14.29
2024-03-16T00:10:30.294Z,14.72
2024-03-16T00:12:59.025Z,14.79
2024-03-16T00:15:28.019Z,14.81
2024-03-16T00:17:56.440Z,14.58
2024-03-16T00:20:26.936Z,14.88
2024-03-16T00:22:55.334Z,14.89
2024-03-16T00:25:23.695Z,14.79
2024-03-16T00:27:53.955Z,14.74
2024-03-16T00:30:24.305Z,14.83
2024-03-16T00:32:52.960Z,14.74
2024-03-16T00:35:21.397Z,14.32
2024-03-16T00:37:50.347Z,14.79
2024-03-16T00:40:20.600Z,14.60
2024-03-16T00:42:49.296Z,14.79
2024-03-16T00:45:17.768Z,14.72
2024-03-16T00:47:46.210Z,14.69
2024-03-16T00:50:15.711Z,14.69
2024-03-16T00:52:44.229Z,14.62
2024-03-16T00:55:12.742Z,14.64
2024-03-16T00:57:41.047Z,14.68
2024-03-16T01:00:10.795Z,14.77
2024-03-16T01:02:40.663Z,14.51
2024-03-16T01:05:09.472Z,14.47
2024-03-16T01:07:37.456Z,14.71
2024-03-16T01:10:07.399Z,14.76
2024-03-16T01:12:35.603Z,14.80
2024-03-16T01:15:04.740Z,14.71
2024-03-16T01:17:33.046Z,14.50
2024-03-16T01:20:01.571Z,14.68
2024-03-16T01:22:29.998Z,14.74
2024-03-16T01:24:58.818Z,14.99
2024-03-16T01:27:27.353Z,14.45
2024-03-16T01:29:55.742Z,14.59
2024-03-16T01:32:24.475Z,14.66
2024-03-16T01:34:52.913Z,14.76
2024-03-16T01:37:21.299Z,14.49
2024-03-16T01:39:51.055Z,14.91
2024-03-16T01:42:19.707Z,14.90
2024-03-16T01:45:15.962Z,14.51
2024-03-16T01:47:48.406Z,14.59
2024-03-16T01:50:20.626Z,14.60
2024-03-16T01:52:49.708Z,14.65
2024-03-16T01:55:19.008Z,14.75
2024-03-16T01:57:47.479Z,14.67
2024-03-16T02:00:16.754Z,14.80
2024-03-16T02:02:45.555Z,14.32
2024-03-16T02:05:13.884Z,14.35
2024-03-16T02:07:46.136Z,14.50
2024-03-16T02:10:14.591Z,14.48
2024-03-16T02:12:43.484Z,14.34
2024-03-16T02:15:12.267Z,14.28
2024-03-16T02:17:40.589Z,14.52
2024-03-16T02:20:15.949Z,14.46
2024-03-16T02:22:44.941Z,14.57
2024-03-16T02:25:14.106Z,14.50
2024-03-16T02:27:42.486Z,14.60
2024-03-16T02:30:12.005Z,14.49
2024-03-16T02:32:40.442Z,14.54
2024-03-16T02:35:09.303Z,14.26
2024-03-16T02:37:38.128Z,14.40
2024-03-16T02:40:07.411Z,14.56
2024-03-16T02:42:36.517Z,14.27
2024-03-16T02:45:07.322Z,14.50
2024-03-16T02:47:35.724Z,14.38
2024-03-16T02:50:05.219Z,14.50
2024-03-16T02:52:33.721Z,14.47
2024-03-16T02:55:02.384Z,14.31
2024-03-16T02:57:31.029Z,14.60
2024-03-16T02:59:59.385Z,14.02
2024-03-16T03:02:29.238Z,14.58
2024-03-16T03:04:57.560Z,14.29
2024-03-16T03:07:25.910Z,14.37
2024-03-16T03:09:54.286Z,14.28
2024-03-16T03:12:24.146Z,14.23
2024-03-16T03:14:52.677Z,14.45
2024-03-16T03:17:24.131Z,14.42
2024-03-16T03:19:52.570Z,14.51
2024-03-16T03:22:21.033Z,14.48
2024-03-16T03:24:49.353Z,14.53
2024-03-16T03:27:17.777Z,14.57
2024-03-16T03:29:47.365Z,14.50
2024-03-16T03:32:15.884Z,14.46
2024-03-16T03:34:44.216Z,14.35
2024-03-16T03:37:13.562Z,14.42
2024-03-16T03:39:42.380Z,14.57
2024-03-16T03:42:12.478Z,14.51
2024-03-16T03:44:51.254Z,14.07
2024-03-16T03:47:19.680Z,14.18
2024-03-16T03:49:52.192Z,14.12
2024-03-16T03:52:21.420Z,13.96
2024-03-16T03:54:50.145Z,14.07
2024-03-16T03:57:18.521Z,14.30
2024-03-16T03:59:46.820Z,13.82
2024-03-16T04:02:15.106Z,13.73
2024-03-16T04:04:43.424Z,13.93
2024-03-16T04:07:12.150Z,13.88
2024-03-16T04:09:45.811Z,14.02
2024-03-16T04:12:14.315Z,13.69
2024-03-16T04:14:42.700Z,13.90
2024-03-16T04:17:11.602Z,14.02
2024-03-16T04:19:40.417Z,13.88
2024-03-16T04:22:08.823Z,13.87
2024-03-16T04:24:37.918Z,13.78
2024-03-16T04:27:06.454Z,13.55
2024-03-16T04:29:34.805Z,13.51
2024-03-16T04:32:03.233Z,13.68
2024-03-16T04:34:31.604Z,13.45
2024-03-16T04:37:00.199Z,13.76
2024-03-16T04:39:28.861Z,13.82
2024-03-16T04:41:57.171Z,13.59
2024-03-16T04:44:25.500Z,13.85
2024-03-16T04:46:56.304Z,13.73
2024-03-16T04:49:24.665Z,13.82
2024-03-16T04:51:53.039Z,13.83
2024-03-16T04:54:21.400Z,13.87
2024-03-16T04:56:50.014Z,13.57
2024-03-16T04:59:18.320Z,14.07
2024-03-16T05:01:46.918Z,13.96
2024-03-16T05:04:15.319Z,13.93
2024-03-16T05:06:43.708Z,14.11
2024-03-16T05:09:13.891Z,13.96
2024-03-16T05:11:42.273Z,13.69
2024-03-16T05:14:10.724Z,13.84
2024-03-16T05:16:40.989Z,13.92
2024-03-16T05:19:09.529Z,13.84
2024-03-16T05:21:38.010Z,13.58
2024-03-16T05:24:06.608Z,13.87
2024-03-16T05:26:35.478Z,13.81
2024-03-16T05:29:04.236Z,13.88
2024-03-16T05:31:33.435Z,14.14
2024-03-16T05:34:02.033Z,14.06
2024-03-16T05:36:30.470Z,14.00
2024-03-16T05:38:58.788Z,13.69
2024-03-16T05:41:27.312Z,13.81
2024-03-16T05:43:55.800Z,13.78
2024-03-16T05:46:24.101Z,13.79
2024-03-16T05:48:52.505Z,13.45
2024-03-16T05:51:20.969Z,13.41
2024-03-16T05:53:49.388Z,13.23
2024-03-16T05:56:18.285Z,13.09
2024-03-16T05:58:47.269Z,12.89
2024-03-16T06:01:18.381Z,12.99
2024-03-16T06:03:46.292Z,13.04
2024-03-16T06:06:14.674Z,12.87
2024-03-16T06:08:43.295Z,12.74
2024-03-16T06:11:11.797Z,12.58
2024-03-16T06:13:40.155Z,12.94
2024-03-16T06:16:08.565Z,12.55
2024-03-16T06:18:40.998Z,12.43
2024-03-16T06:21:11.109Z,12.41
2024-03-16T06:23:39.622Z,12.38
2024-03-16T06:26:08.039Z,12.24
2024-03-16T06:28:39.388Z,12.62
2024-03-16T06:31:12.281Z,12.28
2024-03-16T06:33:46.479Z,12.43
2024-03-16T06:36:14.932Z,12.45
2024-03-16T06:38:43.470Z,12.52
2024-03-16T06:41:11.820Z,12.60
2024-03-16T06:43:40.751Z,12.49
2024-03-16T06:46:11.695Z,12.48
2024-03-16T06:48:40.298Z,12.47
2024-03-16T06:51:08.671Z,12.28
2024-03-16T06:53:37.799Z,12.17
2024-03-16T06:56:08.082Z,12.11
2024-03-16T06:58:36.462Z,12.35
2024-03-16T07:01:05.599Z,12.24
2024-03-16T07:03:34.129Z,12.24
2024-03-16T07:06:03.587Z,12.44
2024-03-16T07:08:31.926Z,12.23
2024-03-16T07:11:00.311Z,12.33
2024-03-16T07:13:28.762Z,12.43
2024-03-16T07:15:57.132Z,12.48
2024-03-16T07:18:25.459Z,12.56
2024-03-16T07:20:54.344Z,12.19
2024-03-16T07:23:23.143Z,12.44
2024-03-16T07:25:52.567Z,12.34
2024-03-16T07:28:21.003Z,12.20
2024-03-16T07:30:55.800Z,12.22
2024-03-16T07:33:24.257Z,12.15
2024-03-16T07:36:00.959Z,12.17
2024-03-16T07:38:29.488Z,12.16
2024-03-16T07:40:58.033Z,12.06
2024-03-16T07:43:26.649Z,11.92
2024-03-16T07:45:55.129Z,12.11
2024-03-16T07:48:23.705Z,12.11
2024-03-16T07:50:52.031Z,12.10
2024-03-16T07:53:20.399Z,12.06
2024-03-16T07:55:50.489Z,12.09
2024-03-16T07:58:18.896Z,12.15
2024-03-16T08:00:47.929Z,12.27
2024-03-16T08:03:16.356Z,12.25
2024-03-16T08:05:45.299Z,12.22
2024-03-16T08:08:13.926Z,11.96
2024-03-16T08:10:42.318Z,11.68
2024-03-16T08:13:10.657Z,11.56
2024-03-16T08:15:39.414Z,11.62
2024-03-16T08:18:08.034Z,11.81
2024-03-16T08:20:37.776Z,11.47
2024-03-16T08:23:06.189Z,11.90
2024-03-16T08:25:36.995Z,12.03
2024-03-16T08:28:06.534Z,12.02
2024-03-16T08:30:34.981Z,11.85
2024-03-16T08:33:03.572Z,11.88
2024-03-16T08:35:33.274Z,12.06
2024-03-16T08:38:06.115Z,12.45
2024-03-16T08:40:34.614Z,12.55
2024-03-16T08:43:03.900Z,12.68
2024-03-16T08:45:32.637Z,12.51
2024-03-16T08:48:02.196Z,12.52
2024-03-16T08:50:30.693Z,12.37
2024-03-16T08:52:59.345Z,12.53
2024-03-16T08:55:27.833Z,12.08
2024-03-16T08:57:56.347Z,12.55
2024-03-16T09:00:26.249Z,13.01
2024-03-16T09:02:54.676Z,13.09
2024-03-16T09:05:23.121Z,12.76
2024-03-16T09:07:51.692Z,12.78
2024-03-16T09:10:21.501Z,12.62
2024-03-16T09:12:50.552Z,12.42
2024-03-16T09:15:20.769Z,12.70
2024-03-16T09:17:49.096Z,12.16
2024-03-16T09:20:17.469Z,12.37
2024-03-16T09:22:46.025Z,12.18
2024-03-16T09:25:14.775Z,12.09
2024-03-16T09:27:43.265Z,12.14
2024-03-16T09:30:12.920Z,12.22
2024-03-16T09:32:41.559Z,12.58
2024-03-16T09:35:13.028Z,12.57
2024-03-16T09:37:42.468Z,12.61
2024-03-16T09:40:12.436Z,12.66
2024-03-16T09:42:41.721Z,12.58
